Time;durP1;ratioP1;P1;durP2;ratioP2;P2;SDS_P1;SDS_P2;PMS_P1;PMS_P2;Temp;Humidity;BMP_temperature;BMP_pressure;BME280_temperature;BME280_humidity;BME280_pressure;Samples;Min_cycle;Max_cycle;Signal;HPM_P1;HPM_P2
2021/12/29 00:02:41;;;;;;;3.20;1.00;;;7.90;99.90;;;;;;6220716;23;20027;-91
2021/12/29 00:05:51;;;;;;;9.27;1.60;;;7.90;99.90;;;;;;6199467;23;20016;-93
2021/12/29 00:13:10;;;;;;;;;;;;;;;;;;;;;
2021/12/29 00:16:34;;;;;;;6.10;1.10;;;8.00;99.90;;;;;;6242249;22;20031;-91
2021/12/29 00:24:03;;;;;;;10.63;1.45;;;8.00;99.90;;;;;;6081423;23;20492;-92
2021/12/29 00:31:30;;;;;;;9.55;1.52;;;8.00;99.90;;;;;;6087796;23;20117;-93
2021/12/29 00:35:38;;;;;;;8.13;1.60;;;7.90;99.90;;;;;;6011225;23;20087;-92
2021/12/29 00:38:45;;;;;;;10.13;1.58;;;8.00;99.90;;;;;;6010621;23;20023;-91
2021/12/29 00:42:09;;;;;;;9.48;1.95;;;8.00;99.90;;;;;;6096672;23;20078;-94
2021/12/29 00:45:34;;;;;;;7.95;1.65;;;8.00;99.90;;;;;;6043881;23;20497;-93
2021/12/29 00:48:41;;;;;;;7.60;1.77;;;8.00;99.90;;;;;;6186778;23;20028;-92
2021/12/29 00:52:24;;;;;;;3.50;1.20;;;7.90;99.90;;;;;;6226661;23;20495;-93
2021/12/29 00:56:07;;;;;;;3.65;1.20;;;7.90;99.90;;;;;;6227447;23;20386;-92
2021/12/29 00:59:29;;;;;;;;;;;;;;;;;;;;;
2021/12/29 01:03:17;;;;;;;13.80;2.10;;;8.00;99.90;;;;;;6125719;23;20037;-93
2021/12/29 01:06:28;;;;;;;8.25;2.13;;;7.90;99.90;;;;;;6215061;23;20460;-93
2021/12/29 01:09:44;;;;;;;9.85;2.30;;;7.90;99.90;;;;;;6194705;23;20111;-92
2021/12/29 01:13:01;;;;;;;13.07;3.50;;;7.90;99.90;;;;;;6195787;23;20020;-92
2021/12/29 01:19:44;;;;;;;7.78;2.50;;;8.00;99.90;;;;;;6172802;22;20344;-91
2021/12/29 01:22:43;;;;;;;7.35;1.88;;;8.00;99.90;;;;;;6193035;23;20075;-94
2021/12/29 01:26:08;;;;;;;10.25;2.95;;;7.90;99.90;;;;;;6196351;23;20066;-92
2021/12/29 01:29:02;;;;;;;11.77;2.80;;;8.00;99.90;;;;;;6215517;23;20518;-92
2021/12/29 01:31:51;;;;;;;10.88;2.22;;;7.90;99.90;;;;;;6215829;23;20154;-93
2021/12/29 01:34:47;;;;;;;;;;;;;;;;;;;;;
2021/12/29 01:37:52;;;;;;;9.18;2.38;;;8.00;99.90;;;;;;6215724;23;20024;-93
2021/12/29 01:40:48;;;;;;;9.00;2.70;;;8.00;99.90;;;;;;6192533;23;20421;-94
2021/12/29 01:43:46;;;;;;;12.20;2.53;;;8.00;99.90;;;;;;6193778;23;20009;-93
2021/12/29 01:46:59;;;;;;;14.07;3.13;;;8.00;99.90;;;;;;6215698;23;20154;-94
2021/12/29 01:49:54;;;;;;;8.45;2.30;;;8.00;99.90;;;;;;6194462;23;20023;-92
2021/12/29 01:53:08;;;;;;;11.67;2.60;;;8.00;99.90;;;;;;6216308;23;20036;-92
2021/12/29 01:57:01;;;;;;;16.58;2.80;;;7.90;99.90;;;;;;6200526;23;20023;-92
2021/12/29 02:00:31;;;;;;;13.10;2.88;;;7.90;99.90;;;;;;6205938;23;20020;-94
2021/12/29 02:03:39;;;;;;;13.80;2.25;;;7.90;99.90;;;;;;6131901;23;20059;-92
2021/12/29 02:07:15;;;;;;;10.93;2.38;;;7.90;99.90;;;;;;6215789;23;20499;-93
2021/12/29 02:10:28;;;;;;;8.77;2.22;;;7.90;99.90;;;;;;6196562;23;20066;-93
2021/12/29 02:13:28;;;;;;;7.90;2.63;;;7.90;99.90;;;;;;6186137;23;20024;-91
2021/12/29 02:17:28;;;;;;;8.15;2.88;;;7.90;99.90;;;;;;6213614;23;20086;-94
2021/12/29 02:20:19;;;;;;;8.50;3.03;;;7.90;99.90;;;;;;6195740;23;20016;-93
2021/12/29 02:24:04;;;;;;;21.80;2.55;;;7.90;99.90;;;;;;6213771;22;20020;-94
2021/12/29 02:27:17;;;;;;;13.70;3.50;;;7.90;99.90;;;;;;6193566;23;20020;-92
2021/12/29 02:30:29;;;;;;;12.90;2.78;;;7.90;99.90;;;;;;6193849;23;20023;-95
2021/12/29 02:33:30;;;;;;;10.43;3.28;;;7.90;99.90;;;;;;6192597;23;20020;-92
2021/12/29 02:36:18;;;;;;;13.48;2.90;;;7.90;99.90;;;;;;6199795;23;20074;-91
2021/12/29 02:40:07;;;;;;;;;;;;;;;;;;;;;
2021/12/29 02:47:24;;;;;;;17.45;3.90;;;7.90;99.90;;;;;;6049752;23;20082;-93
2021/12/29 02:50:41;;;;;;;14.13;2.85;;;7.90;99.90;;;;;;5990300;23;20020;-91
2021/12/29 02:54:00;;;;;;;7.28;2.67;;;7.90;99.90;;;;;;5986308;23;20076;-93
2021/12/29 02:57:04;;;;;;;11.98;3.58;;;7.90;99.90;;;;;;6054256;23;20017;-93
2021/12/29 03:04:04;;;;;;;11.23;3.03;;;7.90;99.90;;;;;;6183069;23;20028;-92
2021/12/29 03:07:07;;;;;;;14.27;3.50;;;7.90;99.90;;;;;;6255078;22;20476;-94
2021/12/29 03:13:47;;;;;;;10.75;2.78;;;7.90;99.90;;;;;;6277560;22;20798;-92
2021/12/29 03:20:36;;;;;;;16.35;3.08;;;7.90;99.90;;;;;;6213863;23;20021;-93
2021/12/29 03:24:00;;;;;;;;;;;;;;;;;;;;;
2021/12/29 03:27:23;;;;;;;17.92;3.40;;;7.90;99.90;;;;;;6209867;23;19932;-91
2021/12/29 03:31:24;;;;;;;;;;;;;;;;;;;;;
2021/12/29 03:34:35;;;;;;;16.00;4.45;;;8.00;99.90;;;;;;6188546;23;20341;-93
2021/12/29 03:37:48;;;;;;;12.23;4.03;;;8.00;99.90;;;;;;6165850;23;20021;-92
2021/12/29 03:41:20;;;;;;;16.20;3.55;;;8.00;99.90;;;;;;6105478;23;20018;-93
2021/12/29 03:44:24;;;;;;;14.25;4.25;;;8.00;99.90;;;;;;6105157;23;20096;-91
2021/12/29 03:47:46;;;;;;;17.40;4.65;;;8.00;99.90;;;;;;6116787;23;20055;-93
2021/12/29 03:50:53;;;;;;;11.93;4.90;;;8.00;99.90;;;;;;6092256;23;20041;-93
2021/12/29 03:54:42;;;;;;;18.88;5.75;;;7.90;99.90;;;;;;6139536;23;20036;-92
2021/12/29 03:57:42;;;;;;;13.85;4.28;;;7.90;99.90;;;;;;6145885;22;20068;-92
2021/12/29 04:01:28;;;;;;;;;;;;;;;;;;;;;
2021/12/29 04:04:32;;;;;;;16.05;4.35;;;7.90;99.90;;;;;;6276820;22;20027;-91
2021/12/29 04:07:58;;;;;;;13.68;4.85;;;8.00;99.90;;;;;;6285874;22;20016;-94
2021/12/29 04:18:02;;;;;;;16.88;4.75;;;8.00;99.90;;;;;;6277239;22;20073;-92
2021/12/29 04:25:34;;;;;;;11.65;4.93;;;8.10;99.90;;;;;;6244969;23;20080;-92
2021/12/29 04:29:04;;;;;;;12.65;5.15;;;8.20;99.90;;;;;;6219341;23;20031;-93
2021/12/29 04:32:25;;;;;;;13.93;5.47;;;8.20;99.90;;;;;;6204907;23;20016;-93
2021/12/29 04:35:52;;;;;;;20.42;4.95;;;8.20;99.90;;;;;;6199275;23;20400;-92
2021/12/29 04:39:27;;;;;;;14.05;5.07;;;8.10;99.90;;;;;;6199054;23;20020;-92
2021/12/29 04:42:39;;;;;;;14.45;3.80;;;8.00;99.90;;;;;;6224602;23;20100;-92
2021/12/29 04:45:41;;;;;;;14.95;4.05;;;8.00;99.90;;;;;;6193366;23;20020;-92
2021/12/29 04:49:13;;;;;;;;;;;;;;;;;;;;;
2021/12/29 04:52:22;;;;;;;10.52;2.95;;;8.00;99.90;;;;;;6219917;23;20008;-94
2021/12/29 05:11:23;;;;;;;7.57;2.28;;;8.00;99.90;;;;;;6278581;22;20019;-92
2021/12/29 05:14:02;;;;;;;8.82;2.20;;;8.00;99.90;;;;;;6253390;22;20442;-92
2021/12/29 05:21:05;;;;;;;11.07;2.20;;;8.00;99.90;;;;;;6279366;22;20057;-95
